createdAt,value
2022-08-28T00:01:29.602Z,2.60
2022-08-28T00:03:01.900Z,3.03
2022-08-28T00:04:34.413Z,2.50
2022-08-28T00:06:06.494Z,2.65
2022-08-28T00:07:38.353Z,3.45
2022-08-28T00:09:11.348Z,2.60
2022-08-28T00:10:43.855Z,2.20
2022-08-28T00:12:15.751Z,2.17
2022-08-28T00:13:48.375Z,2.47
2022-08-28T00:15:23.880Z,2.50
2022-08-28T00:16:55.796Z,4.13
2022-08-28T00:18:29.437Z,2.90
2022-08-28T00:20:01.394Z,2.50
2022-08-28T00:21:34.022Z,2.58
2022-08-28T00:23:06.837Z,3.20
2022-08-28T00:26:11.825Z,2.72
2022-08-28T00:27:52.856Z,2.80
2022-08-28T00:29:25.014Z,2.60
2022-08-28T00:30:59.353Z,3.25
2022-08-28T00:32:31.222Z,2.38
2022-08-28T00:34:03.387Z,2.80
2022-08-28T00:35:35.373Z,2.75
2022-08-28T00:37:07.422Z,3.42
2022-08-28T00:38:39.238Z,2.83
2022-08-28T00:40:16.025Z,2.72
2022-08-28T00:41:48.564Z,2.92
2022-08-28T00:43:39.251Z,2.58
2022-08-28T00:45:11.188Z,3.38
2022-08-28T00:46:46.154Z,3.28
2022-08-28T00:48:17.973Z,3.10
2022-08-28T00:49:51.859Z,2.63
2022-08-28T00:51:42.396Z,3.85
2022-08-28T00:53:14.306Z,2.40
2022-08-28T00:54:59.446Z,2.90
2022-08-28T00:56:32.458Z,2.50
2022-08-28T00:59:38.878Z,2.75
2022-08-28T01:01:11.659Z,3.88
2022-08-28T01:04:18.148Z,2.45
2022-08-28T01:05:50.058Z,3.42
2022-08-28T01:07:23.405Z,3.00
2022-08-28T01:08:55.280Z,3.03
2022-08-28T01:10:32.898Z,3.40
2022-08-28T01:12:30.704Z,2.80
2022-08-28T01:14:03.134Z,2.60
2022-08-28T01:15:37.203Z,2.80
2022-08-28T01:17:10.315Z,2.90
2022-08-28T01:18:43.557Z,3.10
2022-08-28T01:20:21.261Z,3.03
2022-08-28T01:22:25.465Z,2.75
2022-08-28T01:24:01.217Z,3.00
2022-08-28T01:25:35.277Z,3.30
2022-08-28T01:27:07.130Z,2.80
2022-08-28T01:28:39.861Z,3.03
2022-08-28T01:30:14.672Z,2.58
2022-08-28T01:31:47.520Z,2.67
2022-08-28T01:33:19.703Z,2.40
2022-08-28T01:35:00.702Z,3.60
2022-08-28T01:36:33.746Z,2.55
2022-08-28T01:38:05.608Z,3.08
2022-08-28T01:39:37.428Z,2.87
2022-08-28T01:41:09.238Z,2.70
2022-08-28T01:42:42.472Z,2.58
2022-08-28T01:44:17.954Z,3.13
2022-08-28T01:45:56.147Z,2.90
2022-08-28T01:47:28.072Z,3.47
2022-08-28T01:49:00.482Z,3.50
2022-08-28T01:50:33.810Z,2.90
2022-08-28T01:52:05.774Z,2.83
2022-08-28T01:53:38.792Z,3.13
2022-08-28T01:55:11.700Z,2.88
2022-08-28T01:56:44.544Z,2.90
2022-08-28T01:59:48.230Z,2.90
2022-08-28T02:01:21.545Z,3.25
2022-08-28T02:02:56.249Z,2.60
2022-08-28T02:04:29.599Z,3.35
2022-08-28T02:06:17.985Z,2.97
2022-08-28T02:07:50.710Z,3.45
2022-08-28T02:10:54.281Z,3.47
2022-08-28T02:12:26.114Z,2.70
2022-08-28T02:13:57.949Z,3.40
2022-08-28T02:15:33.160Z,3.47
2022-08-28T02:17:05.108Z,3.65
2022-08-28T02:18:38.051Z,3.15
2022-08-28T02:20:10.299Z,3.08
2022-08-28T02:21:42.233Z,3.60
2022-08-28T02:23:14.455Z,3.20
2022-08-28T02:24:46.862Z,3.70
2022-08-28T02:26:19.745Z,4.43
2022-08-28T02:29:23.714Z,4.03
2022-08-28T02:30:55.657Z,3.30
2022-08-28T02:32:27.777Z,3.60
2022-08-28T02:33:59.551Z,2.58
2022-08-28T02:35:31.468Z,3.22
2022-08-28T02:37:03.644Z,3.60
2022-08-28T02:38:36.198Z,3.65
2022-08-28T02:40:09.341Z,4.53
2022-08-28T02:41:41.360Z,3.35
2022-08-28T02:43:13.168Z,3.78
2022-08-28T02:44:45.062Z,3.50
2022-08-28T02:46:17.258Z,3.43
2022-08-28T02:47:52.260Z,4.35
2022-08-28T02:49:24.203Z,3.40
2022-08-28T02:51:04.047Z,3.50
2022-08-28T02:52:37.547Z,2.90
2022-08-28T02:54:09.378Z,3.17
2022-08-28T02:55:41.281Z,3.30
2022-08-28T02:57:14.336Z,3.60
2022-08-28T02:58:46.133Z,3.78
2022-08-28T03:00:21.594Z,3.00
2022-08-28T03:01:53.702Z,4.00
2022-08-28T03:03:25.783Z,3.60
2022-08-28T03:04:59.957Z,3.33
2022-08-28T03:06:32.798Z,3.67
2022-08-28T03:08:05.188Z,4.22
2022-08-28T03:09:37.117Z,2.88
2022-08-28T03:11:09.110Z,3.97
2022-08-28T03:12:41.054Z,3.55
2022-08-28T03:14:12.832Z,2.95
2022-08-28T03:15:45.777Z,3.22
2022-08-28T03:17:22.292Z,3.63
2022-08-28T03:18:54.057Z,3.72
2022-08-28T03:20:26.592Z,3.55
2022-08-28T03:21:58.426Z,3.00
2022-08-28T03:23:31.884Z,4.57
2022-08-28T03:25:03.982Z,3.15
2022-08-28T03:26:35.793Z,4.20
2022-08-28T03:28:07.639Z,3.13
2022-08-28T03:29:39.938Z,2.78
2022-08-28T03:31:14.522Z,3.58
2022-08-28T03:32:46.457Z,3.63
2022-08-28T03:34:18.301Z,3.72
2022-08-28T03:35:50.680Z,3.10
2022-08-28T03:37:22.612Z,3.08
2022-08-28T03:38:56.181Z,3.28
2022-08-28T03:40:28.054Z,3.17
2022-08-28T03:42:01.121Z,3.92
2022-08-28T03:43:34.183Z,3.17
2022-08-28T03:45:09.244Z,3.40
2022-08-28T03:46:41.190Z,3.28
2022-08-28T03:48:13.213Z,3.03
2022-08-28T03:49:48.299Z,2.42
2022-08-28T03:51:29.192Z,4.07
2022-08-28T03:53:01.664Z,3.00
2022-08-28T03:54:33.666Z,2.90
2022-08-28T03:56:11.096Z,3.65
2022-08-28T03:57:42.934Z,3.88
2022-08-28T03:59:14.778Z,3.10
2022-08-28T04:00:47.259Z,4.00
2022-08-28T04:02:20.659Z,3.65
2022-08-28T04:03:52.771Z,3.28
2022-08-28T04:05:24.999Z,3.35
2022-08-28T04:06:57.660Z,3.67
2022-08-28T04:08:30.267Z,3.08
2022-08-28T04:10:02.400Z,3.33
2022-08-28T04:11:39.061Z,3.60
2022-08-28T04:13:11.824Z,2.97
2022-08-28T04:16:19.186Z,3.33
2022-08-28T04:17:51.122Z,4.07
2022-08-28T04:19:22.964Z,3.50
2022-08-28T04:21:03.417Z,3.17
2022-08-28T04:22:35.451Z,4.13
2022-08-28T04:24:09.674Z,4.47
2022-08-28T04:25:41.864Z,4.05
2022-08-28T04:27:15.129Z,5.20
2022-08-28T04:28:48.058Z,4.47
2022-08-28T04:30:19.895Z,4.53
2022-08-28T04:31:51.990Z,3.67
2022-08-28T04:33:25.368Z,4.18
2022-08-28T04:34:57.300Z,3.88
2022-08-28T04:36:29.535Z,4.38
2022-08-28T04:38:04.286Z,4.07
2022-08-28T04:39:37.347Z,3.28
2022-08-28T04:41:11.202Z,3.87
2022-08-28T04:42:45.169Z,4.20
2022-08-28T04:44:17.328Z,4.28
2022-08-28T04:45:49.199Z,4.25
2022-08-28T04:47:23.935Z,4.03
2022-08-28T04:48:56.089Z,4.35
2022-08-28T04:50:27.949Z,4.18
2022-08-28T04:51:59.801Z,3.58
2022-08-28T04:53:32.977Z,3.53
2022-08-28T04:55:05.186Z,3.60
2022-08-28T04:56:37.783Z,3.58
2022-08-28T04:58:10.670Z,3.08
2022-08-28T04:59:45.097Z,3.75
2022-08-28T05:01:19.693Z,3.53
2022-08-28T05:02:51.798Z,3.30
2022-08-28T05:04:23.710Z,3.85
2022-08-28T05:05:55.634Z,3.45
2022-08-28T05:07:27.471Z,4.00
2022-08-28T05:09:01.032Z,3.67
2022-08-28T05:10:32.853Z,2.63
2022-08-28T05:12:05.780Z,4.40
2022-08-28T05:13:38.177Z,3.65
2022-08-28T05:15:10.683Z,3.78
2022-08-28T05:16:48.364Z,4.20
2022-08-28T05:18:22.282Z,3.40
2022-08-28T05:19:54.455Z,3.72
2022-08-28T05:21:26.241Z,3.35
2022-08-28T05:22:58.043Z,3.90
2022-08-28T05:24:29.887Z,4.90
2022-08-28T05:26:01.973Z,3.78
2022-08-28T05:27:33.791Z,4.47
2022-08-28T05:29:06.315Z,3.95
2022-08-28T05:30:39.562Z,3.60
2022-08-28T05:32:11.334Z,3.42
2022-08-28T05:33:44.583Z,3.95
2022-08-28T05:35:16.465Z,3.40
2022-08-28T05:36:50.521Z,3.85
2022-08-28T05:38:22.390Z,3.90
2022-08-28T05:39:54.221Z,3.60
2022-08-28T05:41:30.283Z,3.50
2022-08-28T05:43:02.067Z,4.43
2022-08-28T05:44:33.893Z,3.90
2022-08-28T05:46:10.584Z,3.97
2022-08-28T05:47:43.767Z,3.55
2022-08-28T05:49:17.946Z,4.50
2022-08-28T05:50:49.838Z,4.18
2022-08-28T05:52:21.935Z,3.60
2022-08-28T05:53:54.146Z,3.97
2022-08-28T05:55:25.981Z,4.68
2022-08-28T05:56:57.907Z,4.77
2022-08-28T05:58:29.663Z,4.07
2022-08-28T06:00:02.441Z,3.67
2022-08-28T06:01:43.386Z,4.22
2022-08-28T06:03:15.324Z,3.90
2022-08-28T06:04:49.134Z,4.40
2022-08-28T06:06:21.997Z,3.63
2022-08-28T06:07:53.846Z,4.60
2022-08-28T06:09:29.685Z,3.70
2022-08-28T06:11:05.392Z,3.42
2022-08-28T06:12:38.760Z,3.90
2022-08-28T06:14:13.901Z,3.83
2022-08-28T06:15:47.875Z,3.95
2022-08-28T06:17:23.452Z,4.93
2022-08-28T06:18:56.104Z,3.95
2022-08-28T06:20:27.945Z,3.90
2022-08-28T06:22:06.968Z,3.87
2022-08-28T06:23:52.381Z,3.80
2022-08-28T06:25:24.173Z,3.75
2022-08-28T06:26:58.702Z,4.18
2022-08-28T06:30:21.456Z,3.50
2022-08-28T06:31:55.712Z,3.30
2022-08-28T06:33:27.685Z,3.75
2022-08-28T06:34:59.533Z,3.97
2022-08-28T06:36:33.928Z,4.03
2022-08-28T06:38:06.661Z,3.55
2022-08-28T06:39:38.693Z,3.38
2022-08-28T06:41:10.493Z,4.18
2022-08-28T06:42:42.415Z,3.25
2022-08-28T06:44:20.642Z,3.60
2022-08-28T06:45:54.924Z,3.65
2022-08-28T06:47:26.763Z,3.13
2022-08-28T06:48:58.683Z,3.10
2022-08-28T06:50:30.569Z,3.40
2022-08-28T06:52:02.510Z,2.93
2022-08-28T06:53:34.590Z,4.90
2022-08-28T06:55:07.231Z,3.40
2022-08-28T06:56:39.154Z,2.38
2022-08-28T06:58:12.747Z,2.83
2022-08-28T06:59:44.865Z,2.83
2022-08-28T07:01:18.038Z,2.95
2022-08-28T07:02:49.865Z,2.58
2022-08-28T07:04:21.820Z,2.50
2022-08-28T07:06:01.035Z,2.70
2022-08-28T07:07:32.884Z,2.80
2022-08-28T07:09:06.936Z,2.30
2022-08-28T07:10:38.727Z,2.63
2022-08-28T07:12:10.551Z,2.23
2022-08-28T07:13:43.452Z,2.70
2022-08-28T07:15:15.330Z,3.42
2022-08-28T07:16:47.283Z,2.67
2022-08-28T07:18:19.162Z,3.10
2022-08-28T07:19:51.625Z,2.90
2022-08-28T07:21:23.898Z,2.72
2022-08-28T07:22:59.539Z,2.78
2022-08-28T07:24:31.713Z,2.80
2022-08-28T07:26:10.523Z,2.70
2022-08-28T07:27:42.468Z,2.35
2022-08-28T07:29:14.640Z,2.58
2022-08-28T07:30:46.830Z,2.22
2022-08-28T07:32:19.578Z,2.30
2022-08-28T07:33:54.045Z,1.98
2022-08-28T07:35:26.306Z,2.40
2022-08-28T07:37:03.879Z,1.95
2022-08-28T07:38:36.109Z,2.20
2022-08-28T07:40:10.287Z,2.40
2022-08-28T07:41:43.736Z,2.40
2022-08-28T07:43:34.410Z,2.70
2022-08-28T07:45:06.828Z,2.03
2022-08-28T07:46:39.496Z,1.85
2022-08-28T07:48:11.809Z,2.72
2022-08-28T07:49:44.917Z,1.88
2022-08-28T07:51:16.864Z,2.63
2022-08-28T07:52:48.697Z,1.67
2022-08-28T07:54:20.754Z,2.25
2022-08-28T07:55:52.643Z,2.27
2022-08-28T07:57:24.562Z,2.38
2022-08-28T07:59:01.223Z,1.52
2022-08-28T08:00:33.088Z,2.15
2022-08-28T08:02:05.872Z,2.20
2022-08-28T08:05:10.663Z,1.90
2022-08-28T08:06:46.973Z,1.73
2022-08-28T08:09:50.617Z,2.28
2022-08-28T08:11:22.493Z,2.08
2022-08-28T08:12:55.848Z,2.25
2022-08-28T08:14:28.283Z,1.83
2022-08-28T08:16:12.736Z,2.00
2022-08-28T08:17:45.262Z,2.00
2022-08-28T08:19:17.469Z,1.70
2022-08-28T08:20:49.277Z,1.45
2022-08-28T08:22:21.174Z,2.30
2022-08-28T08:23:53.024Z,1.60
2022-08-28T08:25:24.845Z,2.60
2022-08-28T08:27:02.004Z,2.63
2022-08-28T08:28:35.160Z,2.70
2022-08-28T08:30:07.645Z,2.00
2022-08-28T08:31:39.740Z,1.70
2022-08-28T08:33:15.826Z,1.77
2022-08-28T08:34:47.678Z,2.38
2022-08-28T08:36:21.459Z,1.67
2022-08-28T08:37:53.330Z,2.88
2022-08-28T08:39:25.172Z,1.77
2022-08-28T08:40:59.897Z,1.75
2022-08-28T08:42:33.590Z,3.08
2022-08-28T08:44:08.206Z,2.08
2022-08-28T08:45:40.425Z,1.90
2022-08-28T08:47:24.020Z,2.17
2022-08-28T08:48:56.852Z,1.67
2022-08-28T08:50:31.926Z,1.83
2022-08-28T08:52:25.398Z,1.80
2022-08-28T08:55:45.786Z,1.80
2022-08-28T08:57:17.652Z,1.45
2022-08-28T08:58:52.152Z,1.67
2022-08-28T09:00:25.325Z,1.70
2022-08-28T09:02:05.361Z,1.80
2022-08-28T09:04:28.488Z,1.40
2022-08-28T09:06:03.850Z,1.65
2022-08-28T09:07:45.223Z,2.53
2022-08-28T09:09:26.919Z,2.10
2022-08-28T09:11:56.990Z,1.67
2022-08-28T09:13:42.406Z,2.13
2022-08-28T09:15:31.590Z,1.90
2022-08-28T09:17:05.125Z,1.42
2022-08-28T09:18:36.988Z,1.85
2022-08-28T09:20:13.953Z,1.08
2022-08-28T09:21:46.769Z,2.17
2022-08-28T09:23:18.761Z,1.52
2022-08-28T09:24:51.780Z,1.45
2022-08-28T09:26:25.539Z,1.77
2022-08-28T09:28:06.625Z,1.52
2022-08-28T09:29:47.201Z,1.50
2022-08-28T09:31:35.332Z,2.15
2022-08-28T09:33:07.224Z,1.70
2022-08-28T09:34:39.301Z,1.55
2022-08-28T09:36:32.694Z,1.58
2022-08-28T09:40:19.643Z,1.58
2022-08-28T09:42:17.386Z,1.80
2022-08-28T09:43:49.239Z,1.25
2022-08-28T09:45:24.624Z,1.77
2022-08-28T09:46:56.482Z,2.13
2022-08-28T09:48:40.057Z,2.03
2022-08-28T09:50:27.384Z,1.67
2022-08-28T09:52:02.030Z,1.20
2022-08-28T09:53:43.398Z,1.77
2022-08-28T09:55:26.143Z,1.77
2022-08-28T09:56:58.074Z,1.48
2022-08-28T09:59:10.424Z,1.40
2022-08-28T10:00:48.539Z,1.15
2022-08-28T10:02:23.272Z,2.05
2022-08-28T10:04:27.057Z,1.15
2022-08-28T10:07:49.652Z,1.23
2022-08-28T10:09:47.694Z,1.63
2022-08-28T10:11:25.700Z,1.70
2022-08-28T10:13:15.551Z,1.48
2022-08-28T10:14:54.951Z,1.25
2022-08-28T10:16:47.252Z,2.08
2022-08-28T10:18:21.929Z,1.90
2022-08-28T10:20:08.994Z,2.13
2022-08-28T10:21:57.083Z,2.80
2022-08-28T10:23:56.180Z,1.95
2022-08-28T10:25:38.077Z,1.38
2022-08-28T10:27:14.785Z,1.23
2022-08-28T10:28:58.034Z,1.60
2022-08-28T10:30:30.972Z,1.45
2022-08-28T10:32:42.208Z,1.38
2022-08-28T10:34:46.874Z,1.17
2022-08-28T10:36:34.295Z,1.38
2022-08-28T10:38:09.835Z,1.50
2022-08-28T10:40:13.168Z,1.35
2022-08-28T10:41:51.497Z,1.88
2022-08-28T10:43:30.849Z,2.05
2022-08-28T10:45:15.743Z,1.35
2022-08-28T10:46:53.665Z,2.00
2022-08-28T10:48:29.370Z,1.35
2022-08-28T10:50:08.157Z,1.63
2022-08-28T10:51:47.556Z,1.17
2022-08-28T10:53:30.968Z,1.20
2022-08-28T10:55:07.985Z,1.38
2022-08-28T10:56:44.568Z,1.25
2022-08-28T10:58:24.450Z,1.63
2022-08-28T10:59:58.812Z,1.40
2022-08-28T11:01:34.915Z,1.23
2022-08-28T11:03:26.980Z,1.23
2022-08-28T11:05:04.002Z,1.35
2022-08-28T11:06:35.878Z,1.17
2022-08-28T11:08:23.948Z,1.20
2022-08-28T11:09:55.886Z,1.15
2022-08-28T11:11:45.932Z,1.15
2022-08-28T11:13:57.022Z,1.27
2022-08-28T11:15:36.346Z,1.17
2022-08-28T11:17:14.242Z,1.30
2022-08-28T11:18:59.153Z,1.33
2022-08-28T11:20:31.158Z,1.30
2022-08-28T11:22:10.932Z,1.50
2022-08-28T11:23:44.537Z,1.20
2022-08-28T11:25:34.931Z,1.40
2022-08-28T11:27:29.543Z,1.05
2022-08-28T11:29:04.506Z,1.23
2022-08-28T11:30:38.714Z,1.60
2022-08-28T11:32:32.413Z,0.98
2022-08-28T11:34:06.062Z,1.33
2022-08-28T11:35:48.591Z,1.30
2022-08-28T11:37:42.066Z,1.30
2022-08-28T11:39:13.841Z,1.02
2022-08-28T11:40:48.743Z,1.15
2022-08-28T11:42:32.306Z,1.13
2022-08-28T11:44:04.098Z,1.40
2022-08-28T11:45:45.748Z,1.52
2022-08-28T11:49:33.810Z,2.33
2022-08-28T11:51:10.025Z,1.67
2022-08-28T11:53:14.443Z,1.00
2022-08-28T11:54:51.826Z,1.20
2022-08-28T11:56:48.508Z,1.10
2022-08-28T11:58:58.421Z,1.20
2022-08-28T12:00:42.870Z,0.95
2022-08-28T12:02:39.622Z,1.00
2022-08-28T12:04:24.568Z,1.08
2022-08-28T12:05:58.686Z,1.20
2022-08-28T12:07:41.701Z,1.30
2022-08-28T12:09:46.514Z,1.17
2022-08-28T12:11:39.887Z,0.90
2022-08-28T12:14:03.935Z,0.85
2022-08-28T12:15:35.740Z,1.60
2022-08-28T12:17:09.671Z,1.13
2022-08-28T12:18:42.884Z,1.05
2022-08-28T12:20:49.047Z,1.58
2022-08-28T12:22:23.791Z,1.55
2022-08-28T12:24:09.201Z,1.23
2022-08-28T12:25:44.172Z,0.88
2022-08-28T12:27:18.286Z,0.80
2022-08-28T12:28:59.127Z,1.17
2022-08-28T12:30:36.981Z,0.90
2022-08-28T12:32:30.372Z,1.25
2022-08-28T12:34:06.340Z,1.10
2022-08-28T12:35:41.736Z,2.00
2022-08-28T12:37:26.263Z,1.42
2022-08-28T12:39:01.217Z,1.48
2022-08-28T12:40:50.685Z,1.50
2022-08-28T12:42:27.602Z,1.05
2022-08-28T12:44:00.256Z,1.00
2022-08-28T12:45:35.080Z,1.20
2022-08-28T12:47:07.010Z,0.70
2022-08-28T12:48:54.267Z,0.70
2022-08-28T12:50:31.107Z,0.85
2022-08-28T12:52:16.615Z,1.00
2022-08-28T12:54:10.560Z,0.98
2022-08-28T12:55:43.760Z,1.20
2022-08-28T12:57:18.869Z,1.10
2022-08-28T12:58:51.033Z,1.27
2022-08-28T13:00:30.342Z,1.10
2022-08-28T13:02:09.872Z,0.80
2022-08-28T13:03:43.495Z,0.95
2022-08-28T13:05:39.729Z,1.45
2022-08-28T13:07:16.779Z,1.17
2022-08-28T13:08:49.347Z,1.10
2022-08-28T13:11:57.020Z,1.20
2022-08-28T13:13:40.273Z,1.23
2022-08-28T13:15:12.161Z,1.00
2022-08-28T13:16:46.774Z,0.88
2022-08-28T13:18:37.177Z,0.98
2022-08-28T13:20:09.417Z,0.90
2022-08-28T13:21:47.281Z,0.98
2022-08-28T13:23:29.745Z,0.70
2022-08-28T13:25:02.799Z,1.08
2022-08-28T13:26:36.617Z,0.90
2022-08-28T13:28:14.129Z,0.80
2022-08-28T13:30:07.016Z,1.13
2022-08-28T13:31:39.245Z,1.00
2022-08-28T13:33:17.144Z,0.90
2022-08-28T13:35:08.870Z,0.73
2022-08-28T13:36:48.371Z,0.82
2022-08-28T13:38:25.144Z,0.82
2022-08-28T13:39:57.197Z,0.80
2022-08-28T13:41:29.938Z,1.00
2022-08-28T13:43:07.142Z,0.95
2022-08-28T13:44:50.892Z,0.90
2022-08-28T13:46:22.843Z,0.90
2022-08-28T13:47:55.257Z,1.08
2022-08-28T13:49:28.268Z,0.80
2022-08-28T13:51:05.145Z,0.95
2022-08-28T13:52:42.474Z,1.00
2022-08-28T13:54:14.384Z,0.80
2022-08-28T13:55:46.970Z,0.93
2022-08-28T13:58:56.774Z,0.95
2022-08-28T14:00:32.191Z,1.10
2022-08-28T14:02:24.887Z,0.98
2022-08-28T14:03:58.144Z,0.93
2022-08-28T14:05:30.043Z,0.80
2022-08-28T14:07:01.908Z,0.70
2022-08-28T14:08:33.819Z,0.70
2022-08-28T14:10:06.308Z,0.70
2022-08-28T14:13:10.071Z,0.75
2022-08-28T14:14:42.438Z,1.13
2022-08-28T14:16:16.904Z,0.82
2022-08-28T14:17:48.954Z,1.15
2022-08-28T14:19:20.972Z,0.70
2022-08-28T14:20:52.905Z,0.80
2022-08-28T14:22:24.802Z,0.93
2022-08-28T14:23:56.704Z,0.77
2022-08-28T14:25:28.663Z,0.93
2022-08-28T14:27:00.613Z,0.60
2022-08-28T14:28:32.619Z,0.70
2022-08-28T14:30:07.280Z,0.80
2022-08-28T14:31:41.163Z,0.80
2022-08-28T14:33:15.421Z,1.13
2022-08-28T14:34:50.309Z,1.02
2022-08-28T14:36:25.814Z,0.73
2022-08-28T14:37:57.741Z,0.82
2022-08-28T14:39:29.639Z,1.00
2022-08-28T14:41:03.024Z,0.70
2022-08-28T14:42:35.016Z,1.05
2022-08-28T14:44:09.836Z,0.88
2022-08-28T14:45:43.667Z,0.90
2022-08-28T14:47:15.616Z,0.70
2022-08-28T14:48:48.140Z,0.90
2022-08-28T14:50:20.012Z,0.98
2022-08-28T14:51:54.237Z,0.90
2022-08-28T14:53:26.178Z,0.90
2022-08-28T14:54:58.113Z,1.10
2022-08-28T14:56:31.802Z,0.60
2022-08-28T14:58:03.740Z,0.80
2022-08-28T14:59:36.331Z,1.10
2022-08-28T15:01:08.261Z,0.90
2022-08-28T15:02:40.071Z,1.17
2022-08-28T15:04:15.805Z,0.75
2022-08-28T15:05:48.131Z,0.93
2022-08-28T15:07:21.361Z,0.70
2022-08-28T15:08:54.222Z,1.08
2022-08-28T15:10:26.104Z,0.70
2022-08-28T15:11:58.043Z,0.85
2022-08-28T15:13:31.368Z,1.00
2022-08-28T15:15:03.719Z,1.00
2022-08-28T15:16:42.051Z,0.80
2022-08-28T15:18:14.418Z,1.08
2022-08-28T15:19:48.846Z,0.93
2022-08-28T15:21:29.344Z,1.50
2022-08-28T15:23:01.228Z,1.27
2022-08-28T15:24:34.606Z,1.15
2022-08-28T15:26:06.637Z,1.17
2022-08-28T15:27:38.806Z,0.70
2022-08-28T15:29:12.104Z,1.25
2022-08-28T15:30:43.996Z,1.13
2022-08-28T15:32:16.568Z,1.67
2022-08-28T15:33:49.256Z,1.58
2022-08-28T15:35:21.198Z,1.80
2022-08-28T15:36:55.063Z,1.63
2022-08-28T15:38:28.083Z,1.42
2022-08-28T15:40:18.609Z,1.13
2022-08-28T15:41:50.642Z,1.20
2022-08-28T15:43:22.535Z,0.82
2022-08-28T15:44:54.383Z,0.60
2022-08-28T15:46:27.153Z,1.13
2022-08-28T15:47:58.996Z,1.08
2022-08-28T15:49:38.903Z,0.70
2022-08-28T15:51:21.745Z,0.80
2022-08-28T15:52:57.546Z,0.70
2022-08-28T15:54:31.976Z,0.88
2022-08-28T15:56:04.091Z,1.00
2022-08-28T15:57:36.022Z,1.00
2022-08-28T15:59:11.522Z,0.88
2022-08-28T16:00:43.351Z,1.05
2022-08-28T16:02:15.285Z,1.15
2022-08-28T16:03:47.250Z,1.10
2022-08-28T16:05:19.071Z,1.38
2022-08-28T16:06:50.895Z,1.30
2022-08-28T16:08:32.367Z,1.30
2022-08-28T16:10:07.263Z,1.38
2022-08-28T16:11:42.079Z,1.42
2022-08-28T16:13:14.103Z,1.00
2022-08-28T16:14:46.115Z,1.10
2022-08-28T16:16:18.260Z,0.63
2022-08-28T16:17:50.293Z,0.90
2022-08-28T16:19:22.138Z,0.80
2022-08-28T16:20:53.975Z,0.98
2022-08-28T16:22:26.654Z,0.85
2022-08-28T16:25:30.278Z,0.85
2022-08-28T16:27:02.403Z,0.65
2022-08-28T16:28:35.089Z,0.80
2022-08-28T16:30:15.868Z,0.90
2022-08-28T16:31:48.162Z,1.00
2022-08-28T16:33:22.310Z,0.90
2022-08-28T16:34:54.519Z,1.23
2022-08-28T16:36:26.870Z,1.42
2022-08-28T16:37:59.273Z,0.90
2022-08-28T16:39:31.111Z,1.13
2022-08-28T16:41:03.005Z,0.82
2022-08-28T16:42:35.373Z,0.93
2022-08-28T16:44:07.195Z,1.13
2022-08-28T16:45:43.672Z,1.15
2022-08-28T16:47:15.568Z,1.13
2022-08-28T16:48:47.895Z,1.33
2022-08-28T16:50:19.949Z,1.52
2022-08-28T16:51:52.214Z,1.00
2022-08-28T16:53:24.407Z,1.00
2022-08-28T16:54:59.995Z,1.17
2022-08-28T16:56:31.958Z,0.90
2022-08-28T16:58:04.447Z,0.90
2022-08-28T16:59:36.440Z,1.13
2022-08-28T17:01:10.414Z,1.02
2022-08-28T17:02:43.780Z,0.98
2022-08-28T17:04:15.696Z,1.20
2022-08-28T17:05:47.649Z,1.00
2022-08-28T17:07:19.942Z,1.30
2022-08-28T17:08:57.199Z,1.25
2022-08-28T17:10:29.366Z,1.05
2022-08-28T17:13:36.387Z,1.40
2022-08-28T17:15:09.466Z,0.82
2022-08-28T17:16:43.264Z,0.90
2022-08-28T17:18:15.307Z,1.05
2022-08-28T17:19:47.134Z,1.52
2022-08-28T17:21:37.685Z,1.30
2022-08-28T17:23:12.675Z,1.40
2022-08-28T17:24:44.472Z,1.10
2022-08-28T17:26:19.186Z,0.95
2022-08-28T17:27:51.541Z,0.70
2022-08-28T17:29:23.574Z,1.00
2022-08-28T17:30:56.460Z,1.20
2022-08-28T17:32:28.562Z,1.35
2022-08-28T17:34:00.567Z,1.25
2022-08-28T17:35:32.462Z,1.00
2022-08-28T17:37:13.938Z,1.73
2022-08-28T17:38:46.702Z,1.40
2022-08-28T17:40:18.622Z,0.90
2022-08-28T17:41:50.558Z,1.20
2022-08-28T17:43:22.549Z,1.10
2022-08-28T17:45:08.515Z,1.75
2022-08-28T17:46:40.516Z,1.13
2022-08-28T17:48:12.431Z,1.30
2022-08-28T17:49:44.666Z,1.55
2022-08-28T17:51:16.532Z,1.17
2022-08-28T17:52:52.298Z,1.38
2022-08-28T17:54:24.773Z,1.40
2022-08-28T17:55:59.415Z,1.05
2022-08-28T17:57:31.433Z,1.17
2022-08-28T17:59:03.362Z,1.27
2022-08-28T18:00:35.486Z,0.90
2022-08-28T18:02:07.574Z,2.13
2022-08-28T18:03:52.950Z,2.25
2022-08-28T18:05:25.556Z,1.40
2022-08-28T18:06:58.410Z,0.82
2022-08-28T18:08:30.224Z,1.20
2022-08-28T18:10:02.139Z,1.48
2022-08-28T18:11:34.099Z,1.05
2022-08-28T18:13:06.661Z,1.50
2022-08-28T18:14:38.493Z,1.10
2022-08-28T18:16:10.413Z,1.50
2022-08-28T18:17:44.097Z,1.20
2022-08-28T18:19:16.617Z,1.10
2022-08-28T18:20:48.485Z,1.35
2022-08-28T18:22:20.371Z,1.35
2022-08-28T18:23:52.210Z,1.30
2022-08-28T18:25:50.762Z,1.30
2022-08-28T18:27:26.552Z,1.27
2022-08-28T18:28:58.441Z,1.48
2022-08-28T18:30:30.441Z,1.30
2022-08-28T18:32:04.277Z,1.45
2022-08-28T18:33:37.368Z,1.23
2022-08-28T18:35:09.366Z,1.70
2022-08-28T18:36:42.242Z,1.20
2022-08-28T18:38:14.798Z,1.42
2022-08-28T18:39:46.877Z,1.48
2022-08-28T18:41:30.719Z,1.38
2022-08-28T18:43:14.245Z,1.20
2022-08-28T18:44:46.096Z,1.05
2022-08-28T18:46:18.119Z,2.53
2022-08-28T18:47:50.287Z,1.58
2022-08-28T18:49:22.169Z,1.30
2022-08-28T18:50:54.248Z,1.42
2022-08-28T18:52:26.294Z,1.95
2022-08-28T18:54:01.055Z,1.23
2022-08-28T18:55:34.029Z,1.77
2022-08-28T18:57:06.003Z,1.17
2022-08-28T18:58:39.130Z,1.40
2022-08-28T19:00:11.920Z,1.45
2022-08-28T19:01:44.010Z,1.73
2022-08-28T19:03:15.899Z,9.93
2022-08-28T19:04:47.836Z,6.28
2022-08-28T19:06:19.636Z,2.83
2022-08-28T19:07:52.016Z,2.00
2022-08-28T19:09:30.334Z,1.52
2022-08-28T19:11:11.956Z,1.38
2022-08-28T19:12:43.757Z,2.30
2022-08-28T19:14:15.644Z,1.13
2022-08-28T19:15:52.721Z,1.42
2022-08-28T19:17:25.647Z,1.20
2022-08-28T19:18:57.533Z,1.58
2022-08-28T19:20:30.402Z,1.85
2022-08-28T19:22:02.303Z,1.60
2022-08-28T19:23:34.428Z,1.23
2022-08-28T19:25:13.336Z,2.10
2022-08-28T19:27:00.834Z,1.40
2022-08-28T19:30:06.700Z,1.42
2022-08-28T19:31:38.982Z,1.75
2022-08-28T19:33:12.720Z,2.47
2022-08-28T19:34:44.623Z,1.67
2022-08-28T19:36:16.646Z,1.45
2022-08-28T19:37:49.779Z,1.40
2022-08-28T19:39:21.600Z,1.88
2022-08-28T19:40:53.478Z,1.73
2022-08-28T19:42:25.455Z,1.10
2022-08-28T19:43:57.353Z,1.60
2022-08-28T19:45:29.819Z,1.40
2022-08-28T19:47:02.026Z,1.13
2022-08-28T19:48:34.431Z,1.10
2022-08-28T19:50:08.545Z,1.45
2022-08-28T19:51:41.337Z,1.33
2022-08-28T19:53:13.448Z,1.15
2022-08-28T19:54:45.315Z,1.50
2022-08-28T19:56:17.187Z,1.43
2022-08-28T19:57:49.474Z,1.03
2022-08-28T19:59:26.515Z,1.48
2022-08-28T20:00:58.981Z,1.35
2022-08-28T20:02:31.116Z,1.42
2022-08-28T20:04:04.271Z,1.38
2022-08-28T20:05:38.383Z,1.10
2022-08-28T20:07:10.288Z,1.42
2022-08-28T20:08:42.278Z,1.70
2022-08-28T20:10:15.488Z,1.52
2022-08-28T20:11:47.537Z,1.60
2022-08-28T20:13:19.411Z,1.15
2022-08-28T20:14:51.263Z,1.05
2022-08-28T20:16:24.666Z,1.30
2022-08-28T20:17:57.981Z,1.15
2022-08-28T20:21:02.089Z,1.25
2022-08-28T20:22:34.265Z,1.17
2022-08-28T20:24:14.658Z,1.17
2022-08-28T20:25:48.336Z,1.08
2022-08-28T20:27:21.280Z,1.40
2022-08-28T20:28:54.049Z,1.35
2022-08-28T20:31:57.725Z,1.50
2022-08-28T20:33:29.553Z,1.40
2022-08-28T20:35:01.900Z,1.17
2022-08-28T20:36:33.889Z,2.08
2022-08-28T20:38:05.797Z,1.20
2022-08-28T20:39:41.574Z,1.20
2022-08-28T20:41:16.199Z,1.23
2022-08-28T20:42:48.979Z,1.02
2022-08-28T20:44:21.564Z,1.27
2022-08-28T20:45:53.491Z,1.02
2022-08-28T20:47:25.952Z,1.33
2022-08-28T20:48:57.812Z,1.02
2022-08-28T20:50:29.686Z,1.23
2022-08-28T20:52:01.859Z,1.20
2022-08-28T20:53:37.060Z,0.80
2022-08-28T20:55:10.685Z,1.30
2022-08-28T20:58:14.989Z,1.10
2022-08-28T20:59:47.875Z,0.95
2022-08-28T21:01:19.788Z,1.38
2022-08-28T21:02:51.877Z,1.73
2022-08-28T21:04:24.446Z,1.00
2022-08-28T21:05:56.586Z,1.00
2022-08-28T21:07:28.623Z,1.30
2022-08-28T21:09:00.773Z,1.00
2022-08-28T21:10:32.794Z,1.15
2022-08-28T21:12:04.695Z,1.05
2022-08-28T21:13:36.526Z,0.93
2022-08-28T21:15:11.252Z,1.02
2022-08-28T21:16:44.044Z,1.67
2022-08-28T21:18:16.256Z,1.00
2022-08-28T21:19:50.742Z,1.10
2022-08-28T21:21:22.594Z,0.90
2022-08-28T21:22:54.733Z,1.00
2022-08-28T21:24:26.876Z,1.38
2022-08-28T21:25:59.748Z,1.10
2022-08-28T21:27:31.714Z,0.80
2022-08-28T21:29:05.913Z,0.77
2022-08-28T21:30:40.972Z,1.10
2022-08-28T21:32:13.289Z,1.15
2022-08-28T21:33:45.118Z,0.98
2022-08-28T21:35:18.082Z,0.90
2022-08-28T21:36:51.098Z,1.25
2022-08-28T21:38:22.919Z,1.00
2022-08-28T21:39:56.463Z,1.07
2022-08-28T21:41:28.569Z,0.90
2022-08-28T21:43:00.408Z,1.60
2022-08-28T21:44:32.242Z,0.90
2022-08-28T21:46:04.862Z,1.00
2022-08-28T21:47:38.024Z,0.88